Airfield :







YOU CAN JOIN US ON...

 
LOGIN :

Register | Disclaimer

   EN    FR    IT 

 









Legend :    VFR   Marginal VFR   IFR   Intensive IFR   Very Intensive IFR
Visi :
Ceiling :
>= 8 km
>= 3000ft
5 to 8 km
1000 to 3000 ft
1500m to 5 km
500 to 1000 ft
800 to 1500m
200 to 500 ft
< 800m
< 200 ft
Symbols :   Thunderstorms  Fog  Heavy snow  Heavy precipitations  Wind > 20 kt







- Airport Elevation : 1166 ft


KMPV - Edward F Knapp State

CURRENT METAR :
  • 180251Z AUTO 00000KT 10SM CLR 08/07 A3028 RMK AO2 SLP258 T00780072 53007

EXPIRED METARs :
  • 180151Z AUTO 00000KT 10SM CLR 09/07 A3027 RMK AO2 SLP255 T00890072
  • 180051Z AUTO 00000KT 10SM BKN055 12/09 A3026 RMK AO2 SLP253 T01170094

TAF KMPV
Valid from the 18 at 00:00 until the 19 at 00:00 UTC


172320Z 1800/1824 03003KT P6SM BKN050
FM180600 00000KT 4SM BR FEW002
FM180800 00000KT 1/4SM FG VV002
FM181300 36004KT P6SM FEW050
No reported NOTAMs for that airfield.



MET'MAP, your aeronautical weather chart ! - Copyright ORBIFLY December 2007 - Disclaimer

ORBIFLY MET'MAP TEAM :

Programming & Development : Alexandra Zaïnal
Concept & Development : Baudouin d'Aumeries
Co-Development & Prog : Marc-Olivier Méhu
Technical & hardware support : Manuel Goepfert

Contact : metmap@orbifly.com




SOURCES & CREDITS :

   NOAA